Terminal Aerodrome Forecast
Issued by NWS

Home | Current Version | Previous Version | Graphics & Text | Print | Product List | Glossary On
Versions: 1 2 3 4 5 6 7 8 9 10 11 12 13 14 15 16 17 18 19
941
FTUS43 KBIS 091609 AAA
TAFDIK
TAF AMD
KDIK 091609Z 0916/1012 29011KT P6SM OVC060
     FM091900 31005KT P6SM -RASN OVC030
     FM092300 18004KT P6SM OVC035
     FM100700 24006KT P6SM OVC050=

USA.gov is the U.S. government's official web portal to all federal, state and local government web resources and services.